Time;durP1;ratioP1;P1;durP2;ratioP2;P2;SDS_P1;SDS_P2;PMS_P1;PMS_P2;Temp;Humidity;BMP_temperature;BMP_pressure;BME280_temperature;BME280_humidity;BME280_pressure;Samples;Min_cycle;Max_cycle;Signal;HPM_P1;HPM_P2
2021/08/10 00:01:56;;;;;;;4.35;4.05;;;25.50;66.40;;;;;;5007241;28;20181;-73
2021/08/10 00:04:22;;;;;;;4.05;3.80;;;25.50;66.30;;;;;;5007582;28;20189;-73
2021/08/10 00:06:48;;;;;;;4.50;4.07;;;25.50;66.70;;;;;;4998196;28;20188;-74
2021/08/10 00:09:14;;;;;;;4.40;4.15;;;25.40;66.60;;;;;;5001099;28;20687;-75
2021/08/10 00:11:39;;;;;;;3.95;3.53;;;25.30;67.00;;;;;;4999921;28;20185;-75
2021/08/10 00:14:05;;;;;;;4.43;4.13;;;25.30;66.90;;;;;;5002907;28;20323;-76
2021/08/10 00:16:31;;;;;;;4.05;3.85;;;25.20;67.50;;;;;;5005266;28;20570;-75
2021/08/10 00:18:56;;;;;;;4.47;3.72;;;25.10;67.30;;;;;;5006525;28;20311;-75
2021/08/10 00:21:22;;;;;;;4.88;4.50;;;25.10;67.40;;;;;;4999075;28;20201;-75
2021/08/10 00:23:48;;;;;;;4.65;4.22;;;25.00;67.50;;;;;;5003110;28;20209;-74
2021/08/10 00:26:14;;;;;;;4.47;4.18;;;25.00;67.90;;;;;;4996588;28;20205;-74
2021/08/10 00:28:40;;;;;;;4.20;4.05;;;25.00;68.20;;;;;;4993409;28;20266;-75
2021/08/10 00:31:06;;;;;;;5.07;4.88;;;25.00;68.50;;;;;;5005033;28;20188;-75
2021/08/10 00:33:31;;;;;;;7.20;4.35;;;25.00;68.10;;;;;;5004113;28;20220;-75
2021/08/10 00:35:58;;;;;;;4.75;4.35;;;25.00;68.40;;;;;;5003594;28;20207;-75
2021/08/10 00:38:25;;;;;;;5.65;4.13;;;24.90;68.60;;;;;;5000707;28;20547;-75
2021/08/10 00:40:53;;;;;;;4.13;3.92;;;24.80;68.90;;;;;;5007364;28;20196;-75
2021/08/10 00:43:30;;;;;;;4.45;4.28;;;24.80;68.40;;;;;;5007565;28;20185;-75
2021/08/10 00:45:56;;;;;;;4.35;4.05;;;24.80;69.30;;;;;;5004010;28;20462;-73
2021/08/10 00:48:22;;;;;;;4.40;4.20;;;24.70;68.80;;;;;;4996521;28;20181;-74
2021/08/10 00:50:47;;;;;;;4.50;4.18;;;24.60;69.20;;;;;;5004871;28;20276;-74
2021/08/10 00:53:14;;;;;;;4.22;3.92;;;24.60;69.10;;;;;;5006232;28;20693;-75
2021/08/10 00:55:39;;;;;;;4.65;4.18;;;24.60;69.30;;;;;;5006656;28;20239;-75
2021/08/10 00:58:07;;;;;;;4.60;4.30;;;24.50;69.60;;;;;;4999359;28;20745;-74
2021/08/10 01:00:32;;;;;;;4.47;4.18;;;24.40;69.70;;;;;;5004573;28;20188;-75
2021/08/10 01:02:58;;;;;;;4.30;4.10;;;24.40;69.90;;;;;;5003421;28;20185;-74
2021/08/10 01:05:30;;;;;;;4.32;4.03;;;24.40;70.20;;;;;;5008833;28;20185;-75
2021/08/10 01:08:11;;;;;;;4.45;4.07;;;24.30;70.10;;;;;;5000675;28;20192;-73
2021/08/10 01:10:47;;;;;;;5.22;4.60;;;24.30;70.50;;;;;;5008866;28;20201;-74
2021/08/10 01:13:29;;;;;;;4.25;3.97;;;24.20;69.90;;;;;;5006124;28;20977;-74
2021/08/10 01:16:12;;;;;;;4.07;3.88;;;24.30;69.80;;;;;;5009561;28;20200;-73
2021/08/10 01:18:47;;;;;;;4.10;3.80;;;24.30;69.80;;;;;;5000899;28;20209;-75
2021/08/10 01:21:23;;;;;;;3.30;3.13;;;24.20;69.80;;;;;;5007151;28;20250;-75
2021/08/10 01:23:55;;;;;;;4.50;4.20;;;24.20;70.30;;;;;;5008211;28;20266;-75
2021/08/10 01:26:53;;;;;;;6.00;4.22;;;24.20;69.90;;;;;;5000363;28;20288;-75
2021/08/10 01:29:29;;;;;;;3.83;3.63;;;24.20;71.70;;;;;;5003283;28;20185;-75
2021/08/10 01:31:57;;;;;;;4.10;3.90;;;24.10;70.70;;;;;;5008838;28;20263;-74
2021/08/10 01:34:37;;;;;;;4.70;4.40;;;24.10;70.30;;;;;;5002563;28;20249;-74
2021/08/10 01:37:08;;;;;;;3.70;3.50;;;24.00;71.40;;;;;;5002025;28;20184;-75
2021/08/10 01:39:36;;;;;;;3.85;3.67;;;23.90;71.20;;;;;;5001219;28;20189;-74
2021/08/10 01:42:02;;;;;;;4.47;3.78;;;23.90;70.90;;;;;;4991762;28;20201;-74
2021/08/10 01:44:29;;;;;;;7.40;4.60;;;23.80;70.80;;;;;;5008270;28;20185;-74
2021/08/10 01:46:56;;;;;;;4.05;3.80;;;23.70;71.50;;;;;;4999846;28;20190;-74
2021/08/10 01:49:23;;;;;;;4.32;4.13;;;23.60;72.90;;;;;;5009596;28;20208;-74
2021/08/10 01:51:51;;;;;;;4.90;4.50;;;23.50;71.80;;;;;;5004668;28;20186;-74
2021/08/10 01:54:18;;;;;;;4.38;4.15;;;23.50;72.70;;;;;;5003816;28;20213;-75
2021/08/10 01:56:44;;;;;;;4.53;4.13;;;23.40;72.40;;;;;;5009194;28;20189;-74
2021/08/10 01:59:10;;;;;;;4.15;3.80;;;23.40;72.10;;;;;;5003454;28;20698;-74
2021/08/10 02:01:38;;;;;;;4.55;4.22;;;23.30;72.40;;;;;;4994803;28;20181;-74
2021/08/10 02:04:06;;;;;;;5.50;3.88;;;23.30;72.30;;;;;;5006674;28;20185;-74
2021/08/10 02:06:33;;;;;;;4.55;4.20;;;23.30;72.50;;;;;;5001141;28;20805;-75
2021/08/10 02:09:00;;;;;;;4.47;4.20;;;23.20;72.40;;;;;;5005216;28;20652;-74
2021/08/10 02:11:27;;;;;;;4.35;4.05;;;23.20;72.70;;;;;;5004348;28;20214;-74
2021/08/10 02:13:54;;;;;;;4.35;4.15;;;23.20;72.40;;;;;;5007237;28;20216;-74
2021/08/10 02:16:22;;;;;;;4.32;4.03;;;23.10;72.50;;;;;;5001387;28;20204;-74
2021/08/10 02:18:49;;;;;;;4.35;4.00;;;23.10;72.60;;;;;;5003047;28;20235;-74
2021/08/10 02:21:35;;;;;;;4.00;3.80;;;23.10;74.30;;;;;;4992448;28;20204;-74
2021/08/10 02:24:10;;;;;;;5.40;4.18;;;23.10;73.10;;;;;;5004994;28;20658;-74
2021/08/10 02:26:49;;;;;;;4.22;4.05;;;23.10;72.60;;;;;;5005970;28;20595;-74
2021/08/10 02:29:17;;;;;;;5.90;3.58;;;23.10;73.00;;;;;;4994016;28;20224;-74
2021/08/10 02:31:45;;;;;;;3.92;3.72;;;23.10;72.70;;;;;;5005170;28;20196;-75
2021/08/10 02:34:13;;;;;;;4.18;3.83;;;23.10;72.70;;;;;;5003925;28;20217;-74
2021/08/10 02:36:39;;;;;;;4.07;3.88;;;23.00;72.90;;;;;;5004646;28;20287;-75
2021/08/10 02:39:07;;;;;;;3.65;3.55;;;23.00;73.20;;;;;;5007281;28;20270;-75
2021/08/10 02:41:36;;;;;;;4.35;4.15;;;23.10;72.50;;;;;;4996499;28;20190;-74
2021/08/10 02:44:04;;;;;;;3.95;3.72;;;23.00;73.00;;;;;;4999352;28;20588;-75
2021/08/10 02:46:30;;;;;;;3.67;3.58;;;23.00;73.70;;;;;;5006347;28;20582;-74
2021/08/10 02:48:56;;;;;;;3.78;3.58;;;23.00;73.50;;;;;;5005609;28;20193;-74
2021/08/10 02:51:22;;;;;;;3.80;3.70;;;22.90;73.00;;;;;;5006585;28;20200;-73
2021/08/10 02:53:48;;;;;;;4.00;3.88;;;22.90;73.50;;;;;;4999990;28;20220;-74
2021/08/10 02:56:19;;;;;;;4.50;4.10;;;22.90;73.30;;;;;;5005391;28;20203;-74
2021/08/10 02:58:52;;;;;;;4.47;4.28;;;22.90;73.40;;;;;;5003273;28;20238;-75
2021/08/10 03:01:20;;;;;;;4.47;3.55;;;22.90;72.70;;;;;;5002085;28;20683;-74
2021/08/10 03:03:47;;;;;;;4.25;4.03;;;22.90;72.80;;;;;;5005550;28;20566;-75
2021/08/10 03:06:13;;;;;;;4.07;3.88;;;22.90;73.60;;;;;;4997985;28;20211;-75
2021/08/10 03:08:46;;;;;;;4.80;4.40;;;22.90;73.50;;;;;;5006293;28;20702;-74
2021/08/10 03:11:13;;;;;;;3.63;3.45;;;22.90;73.30;;;;;;5005123;28;20223;-74
2021/08/10 03:13:41;;;;;;;5.68;4.32;;;22.90;73.80;;;;;;4997813;28;20213;-74
2021/08/10 03:16:08;;;;;;;4.38;4.18;;;22.90;73.80;;;;;;5003060;28;20189;-74
2021/08/10 03:18:36;;;;;;;5.28;4.43;;;22.90;73.90;;;;;;5000609;28;20663;-74
2021/08/10 03:21:03;;;;;;;4.22;4.03;;;22.80;73.90;;;;;;4998605;28;20230;-74
2021/08/10 03:23:32;;;;;;;3.70;3.55;;;22.80;74.10;;;;;;5004904;28;20197;-75
2021/08/10 03:25:59;;;;;;;5.10;4.70;;;22.80;74.30;;;;;;5001130;28;20737;-74
2021/08/10 03:28:27;;;;;;;4.35;4.05;;;22.70;74.50;;;;;;5005372;28;20189;-73
2021/08/10 03:30:56;;;;;;;4.65;4.43;;;22.70;74.70;;;;;;5004519;28;20861;-73
2021/08/10 03:33:28;;;;;;;4.88;4.50;;;22.70;74.90;;;;;;5001109;28;20304;-75
2021/08/10 03:35:55;;;;;;;4.55;4.28;;;22.60;74.70;;;;;;4999041;28;20192;-75
2021/08/10 03:38:21;;;;;;;5.03;4.57;;;22.60;74.90;;;;;;5004390;28;20212;-75
2021/08/10 03:40:47;;;;;;;7.18;4.38;;;22.60;74.90;;;;;;5005895;28;20188;-75
2021/08/10 03:43:14;;;;;;;4.50;4.07;;;22.50;75.00;;;;;;5007041;28;20225;-74
2021/08/10 03:45:40;;;;;;;4.50;4.20;;;22.50;75.10;;;;;;5001736;28;20181;-74
2021/08/10 03:48:06;;;;;;;5.40;4.63;;;22.50;75.00;;;;;;5002769;28;20204;-74
2021/08/10 03:50:32;;;;;;;4.32;4.03;;;22.50;75.10;;;;;;5006618;28;20188;-75
2021/08/10 03:52:58;;;;;;;6.60;3.97;;;22.40;75.30;;;;;;5002086;28;20674;-74
2021/08/10 03:55:24;;;;;;;4.45;4.15;;;22.40;75.40;;;;;;5007064;28;20189;-74
2021/08/10 03:57:52;;;;;;;4.05;3.90;;;22.40;74.90;;;;;;5005504;28;20716;-74
2021/08/10 04:00:18;;;;;;;4.28;3.88;;;22.40;74.90;;;;;;5004548;28;20257;-73
2021/08/10 04:02:44;;;;;;;4.47;4.20;;;22.40;74.90;;;;;;5002947;28;20280;-74
2021/08/10 04:05:11;;;;;;;4.78;4.28;;;22.50;74.80;;;;;;4998382;28;20247;-74
2021/08/10 04:07:41;;;;;;;4.20;3.90;;;22.50;74.70;;;;;;5017427;28;20192;-74
2021/08/10 04:10:08;;;;;;;4.50;4.13;;;22.50;74.40;;;;;;5004975;28;20271;-74
2021/08/10 04:12:34;;;;;;;4.22;4.00;;;22.50;74.50;;;;;;5004438;28;20204;-75
2021/08/10 04:15:00;;;;;;;4.90;4.30;;;22.60;74.50;;;;;;5001180;28;20213;-74
2021/08/10 04:17:27;;;;;;;3.75;3.50;;;22.60;74.20;;;;;;5005634;28;20205;-74
2021/08/10 04:19:53;;;;;;;3.80;3.70;;;22.60;74.20;;;;;;5016133;28;20192;-74
2021/08/10 04:22:20;;;;;;;3.97;3.55;;;22.70;74.10;;;;;;5004919;28;20268;-74
2021/08/10 04:24:46;;;;;;;6.45;4.20;;;22.70;74.20;;;;;;5001461;28;20197;-74
2021/08/10 04:27:13;;;;;;;4.15;3.95;;;22.70;74.30;;;;;;4998984;28;20682;-74
2021/08/10 04:29:39;;;;;;;3.83;3.53;;;22.70;74.30;;;;;;5006143;28;20189;-74
2021/08/10 04:32:06;;;;;;;4.22;3.88;;;22.80;74.20;;;;;;5003122;28;20292;-73
2021/08/10 04:34:31;;;;;;;4.32;4.00;;;22.80;74.00;;;;;;4990065;28;20232;-71
2021/08/10 04:36:57;;;;;;;4.72;4.30;;;22.80;74.10;;;;;;5001078;28;20189;-72
2021/08/10 04:39:26;;;;;;;4.07;3.88;;;22.90;74.00;;;;;;5004971;28;20701;-72
2021/08/10 04:41:52;;;;;;;3.92;3.60;;;22.90;73.90;;;;;;4998113;28;20181;-72
2021/08/10 04:44:18;;;;;;;3.83;3.63;;;22.90;73.80;;;;;;5005850;28;20186;-72
2021/08/10 04:46:44;;;;;;;4.22;3.83;;;23.00;74.10;;;;;;5003278;28;20647;-73
2021/08/10 04:49:09;;;;;;;4.45;3.95;;;23.00;74.30;;;;;;5005843;28;20240;-72
2021/08/10 04:51:35;;;;;;;4.25;4.05;;;23.10;74.30;;;;;;5008738;28;20193;-72
2021/08/10 04:54:01;;;;;;;3.92;3.80;;;23.10;74.30;;;;;;5004602;28;20643;-72
2021/08/10 04:56:26;;;;;;;4.25;3.92;;;23.10;74.40;;;;;;4999088;28;20185;-73
2021/08/10 04:58:52;;;;;;;5.28;4.05;;;23.20;74.40;;;;;;5010781;28;20225;-71
2021/08/10 05:01:18;;;;;;;6.10;4.20;;;23.20;74.20;;;;;;5001741;28;20235;-72
2021/08/10 05:03:44;;;;;;;4.15;3.85;;;23.30;74.40;;;;;;4998556;28;20730;-72
2021/08/10 05:06:10;;;;;;;4.97;4.60;;;23.30;74.40;;;;;;4996918;28;20663;-72
2021/08/10 05:08:35;;;;;;;4.65;4.07;;;23.40;74.10;;;;;;5006034;28;20192;-75
2021/08/10 05:11:01;;;;;;;4.65;4.35;;;23.40;73.90;;;;;;5004003;28;20210;-74
2021/08/10 05:13:27;;;;;;;3.53;3.33;;;23.40;73.80;;;;;;4997705;28;20217;-75
2021/08/10 05:15:53;;;;;;;4.25;4.00;;;23.50;74.30;;;;;;5006779;28;20189;-74
2021/08/10 05:18:19;;;;;;;4.63;4.22;;;23.50;73.60;;;;;;5010889;28;20185;-73
2021/08/10 05:20:45;;;;;;;8.05;3.63;;;23.50;73.60;;;;;;5008371;28;20188;-75
2021/08/10 05:23:11;;;;;;;4.18;3.80;;;23.60;73.40;;;;;;5003886;28;20186;-74
2021/08/10 05:25:37;;;;;;;4.60;4.30;;;23.60;73.10;;;;;;5001820;28;20205;-75
2021/08/10 05:28:03;;;;;;;5.15;4.60;;;23.70;72.60;;;;;;5002888;28;20196;-75
2021/08/10 05:30:29;;;;;;;5.35;4.85;;;23.70;72.50;;;;;;5008728;28;20197;-75
2021/08/10 05:32:55;;;;;;;6.63;4.35;;;23.70;72.50;;;;;;4996929;28;20193;-73
2021/08/10 05:35:21;;;;;;;5.65;5.15;;;23.80;72.40;;;;;;5000965;28;20742;-72
2021/08/10 05:37:46;;;;;;;5.20;4.80;;;23.80;72.40;;;;;;5008741;28;20182;-74
2021/08/10 05:40:12;;;;;;;7.90;4.85;;;23.90;72.40;;;;;;5010046;28;20184;-75
2021/08/10 05:42:38;;;;;;;5.18;4.50;;;23.90;72.70;;;;;;5010063;28;20184;-74
2021/08/10 05:45:04;;;;;;;4.80;4.53;;;24.00;72.90;;;;;;5004791;28;20185;-74
2021/08/10 05:47:30;;;;;;;4.32;4.13;;;24.00;72.00;;;;;;5006824;28;20189;-74
2021/08/10 05:49:56;;;;;;;5.45;4.60;;;24.00;71.80;;;;;;5009540;28;20196;-74
2021/08/10 05:52:21;;;;;;;4.55;4.28;;;24.10;72.00;;;;;;5009352;28;21013;-69
2021/08/10 05:54:47;;;;;;;6.32;3.97;;;24.10;71.80;;;;;;5008286;28;20216;-71
2021/08/10 05:57:13;;;;;;;4.28;4.07;;;24.10;72.10;;;;;;5003427;28;20871;-71
2021/08/10 05:59:41;;;;;;;4.30;3.95;;;24.10;70.60;;;;;;5004408;28;20192;-71
2021/08/10 06:02:07;;;;;;;4.68;4.38;;;24.20;70.90;;;;;;5003466;28;20265;-72
2021/08/10 06:04:33;;;;;;;4.28;3.88;;;24.20;71.30;;;;;;5005030;28;20732;-70
2021/08/10 06:07:01;;;;;;;4.35;4.05;;;24.30;71.00;;;;;;5005456;28;20196;-70
2021/08/10 06:09:26;;;;;;;4.28;3.35;;;24.30;70.80;;;;;;5002463;28;20208;-71
2021/08/10 06:11:52;;;;;;;4.40;3.75;;;24.40;71.10;;;;;;4993878;28;20373;-71
2021/08/10 06:14:19;;;;;;;4.15;3.95;;;24.40;70.80;;;;;;5002165;28;20322;-73
2021/08/10 06:16:45;;;;;;;4.15;3.85;;;24.50;70.80;;;;;;5000399;28;20188;-72
2021/08/10 06:19:10;;;;;;;4.22;3.92;;;24.50;70.60;;;;;;5000751;28;20821;-74
2021/08/10 06:21:36;;;;;;;4.22;3.80;;;24.60;70.40;;;;;;5003274;28;20819;-74
2021/08/10 06:24:02;;;;;;;4.90;4.55;;;24.70;69.80;;;;;;5007474;28;20582;-75
2021/08/10 06:26:27;;;;;;;5.32;4.28;;;24.70;69.80;;;;;;4998241;28;20694;-73
2021/08/10 06:28:53;;;;;;;4.65;4.35;;;24.80;69.60;;;;;;5006732;28;20208;-74
2021/08/10 06:31:19;;;;;;;8.13;5.13;;;24.90;69.50;;;;;;5005269;28;20180;-74
2021/08/10 06:33:45;;;;;;;4.68;4.32;;;24.90;69.10;;;;;;5003183;28;20447;-74
2021/08/10 06:36:11;;;;;;;5.38;4.03;;;25.00;68.90;;;;;;5004662;28;20227;-75
2021/08/10 06:38:36;;;;;;;5.78;4.80;;;25.00;69.10;;;;;;4993258;28;20244;-71
2021/08/10 06:41:02;;;;;;;5.03;4.55;;;25.00;68.60;;;;;;5003256;28;20264;-73
2021/08/10 06:43:28;;;;;;;5.25;4.90;;;25.00;68.50;;;;;;5005444;28;20192;-75
2021/08/10 06:46:09;;;;;;;5.20;4.82;;;25.10;68.70;;;;;;5003421;28;20189;-75
2021/08/10 06:48:35;;;;;;;5.28;4.72;;;25.20;69.00;;;;;;4991371;28;20200;-74
2021/08/10 06:51:01;;;;;;;5.47;5.10;;;25.20;68.10;;;;;;4994384;28;20188;-72
2021/08/10 06:53:27;;;;;;;4.65;4.40;;;25.30;68.40;;;;;;4995049;28;20748;-75
2021/08/10 06:55:53;;;;;;;4.80;4.50;;;25.40;68.40;;;;;;4997315;28;20184;-74
2021/08/10 06:58:19;;;;;;;6.53;4.90;;;25.50;68.60;;;;;;4998251;28;20188;-76
2021/08/10 07:00:44;;;;;;;7.35;5.15;;;25.60;68.20;;;;;;4994726;28;20595;-77
2021/08/10 07:03:10;;;;;;;6.70;4.53;;;25.70;68.10;;;;;;4996435;28;20279;-75
2021/08/10 07:05:36;;;;;;;4.85;3.85;;;25.80;68.10;;;;;;4991029;28;20181;-75
2021/08/10 07:08:02;;;;;;;5.15;4.93;;;25.90;68.20;;;;;;4986673;28;20255;-75
2021/08/10 07:10:28;;;;;;;4.43;4.13;;;26.00;67.70;;;;;;4988348;28;20198;-76
2021/08/10 07:12:54;;;;;;;4.40;4.00;;;26.10;67.40;;;;;;4985729;28;20235;-73
2021/08/10 07:15:19;;;;;;;5.47;5.07;;;26.20;67.50;;;;;;4989565;28;20228;-74
2021/08/10 07:17:45;;;;;;;6.05;5.32;;;26.30;67.60;;;;;;4985050;28;20185;-73
2021/08/10 07:20:11;;;;;;;5.57;5.18;;;26.40;67.20;;;;;;4984556;28;20181;-77
2021/08/10 07:22:37;;;;;;;5.90;4.95;;;26.50;67.00;;;;;;4988831;28;20272;-76
2021/08/10 07:25:04;;;;;;;5.03;4.25;;;26.60;66.80;;;;;;4986721;28;20192;-75
2021/08/10 07:27:30;;;;;;;4.90;4.57;;;26.70;66.70;;;;;;4996829;28;20181;-73
2021/08/10 07:29:55;;;;;;;4.65;4.45;;;26.80;66.50;;;;;;5005669;28;20188;-73
2021/08/10 07:32:21;;;;;;;5.85;4.80;;;26.90;66.40;;;;;;4999904;28;20173;-74
2021/08/10 07:34:48;;;;;;;4.20;3.95;;;27.00;66.20;;;;;;5002990;28;20672;-75
2021/08/10 07:37:13;;;;;;;5.05;4.78;;;27.10;66.10;;;;;;4991608;28;20177;-75
2021/08/10 07:39:39;;;;;;;5.43;4.93;;;27.20;66.10;;;;;;5005591;28;20643;-75
2021/08/10 07:42:05;;;;;;;5.40;5.00;;;27.20;65.70;;;;;;5007283;28;20191;-75
2021/08/10 07:44:30;;;;;;;5.82;5.25;;;27.40;65.70;;;;;;5007910;28;20254;-75
2021/08/10 07:46:56;;;;;;;5.60;5.07;;;27.40;65.60;;;;;;5008000;28;20267;-75
2021/08/10 07:49:22;;;;;;;4.93;4.68;;;27.50;65.40;;;;;;5008605;28;20180;-75
2021/08/10 07:51:48;;;;;;;6.07;4.97;;;27.60;64.50;;;;;;5000287;28;20187;-75
2021/08/10 07:54:13;;;;;;;7.85;4.68;;;27.70;64.50;;;;;;5007799;28;20717;-75
2021/08/10 07:56:40;;;;;;;5.65;5.15;;;27.80;64.30;;;;;;4999033;28;20192;-75
2021/08/10 07:59:05;;;;;;;4.88;4.57;;;27.90;64.60;;;;;;5007643;28;20188;-75
2021/08/10 08:01:31;;;;;;;5.05;4.60;;;28.00;64.50;;;;;;5006887;28;20733;-74
2021/08/10 08:03:57;;;;;;;5.55;5.07;;;28.10;64.40;;;;;;5008075;28;20185;-75
2021/08/10 08:06:22;;;;;;;7.13;5.43;;;28.20;64.20;;;;;;5007557;28;20181;-74
2021/08/10 08:08:48;;;;;;;6.78;5.78;;;28.30;64.30;;;;;;4998196;28;20201;-75
2021/08/10 08:11:14;;;;;;;6.50;4.97;;;28.30;63.60;;;;;;5001965;28;20184;-74
2021/08/10 08:13:40;;;;;;;7.10;5.35;;;28.40;63.70;;;;;;5007121;28;20690;-75
2021/08/10 08:16:06;;;;;;;5.82;5.32;;;28.50;63.80;;;;;;5006798;28;20184;-74
2021/08/10 08:18:31;;;;;;;5.72;4.80;;;28.60;63.50;;;;;;5006290;28;20173;-74
2021/08/10 08:20:57;;;;;;;10.40;5.07;;;28.70;62.90;;;;;;5002456;28;20611;-74
2021/08/10 08:23:27;;;;;;;5.45;5.00;;;28.80;62.50;;;;;;5004837;28;20654;-75
2021/08/10 08:25:54;;;;;;;5.38;4.97;;;28.90;62.80;;;;;;5007627;28;20701;-74
2021/08/10 08:28:20;;;;;;;5.65;5.15;;;29.10;62.40;;;;;;5007112;28;20188;-74
2021/08/10 08:30:46;;;;;;;5.25;4.95;;;29.10;62.40;;;;;;5007269;28;20591;-74
2021/08/10 08:33:11;;;;;;;5.53;5.00;;;29.30;62.10;;;;;;5006918;28;20260;-75
2021/08/10 08:35:38;;;;;;;7.03;4.85;;;29.40;62.20;;;;;;5022160;28;20189;-74
2021/08/10 08:38:07;;;;;;;5.35;4.85;;;29.50;62.40;;;;;;5005981;28;20184;-74
2021/08/10 08:40:37;;;;;;;5.45;5.05;;;29.60;62.00;;;;;;5000836;28;20275;-74
2021/08/10 08:43:03;;;;;;;5.93;5.03;;;29.70;62.00;;;;;;5008128;28;20193;-73
2021/08/10 08:45:29;;;;;;;5.53;5.20;;;29.80;61.70;;;;;;5007190;28;20647;-74
2021/08/10 08:47:55;;;;;;;6.05;5.40;;;30.00;61.70;;;;;;5006889;28;20188;-74
2021/08/10 08:50:22;;;;;;;5.60;5.10;;;30.10;61.30;;;;;;5007306;28;20542;-75
2021/08/10 08:52:53;;;;;;;5.28;4.82;;;30.20;61.10;;;;;;5007051;28;20180;-75
2021/08/10 08:55:22;;;;;;;5.43;4.95;;;30.30;60.80;;;;;;5006918;28;20294;-75
2021/08/10 08:57:48;;;;;;;5.63;4.53;;;30.40;61.00;;;;;;4997993;28;20243;-75
2021/08/10 09:00:15;;;;;;;5.43;5.05;;;30.50;60.30;;;;;;5007238;28;20215;-75
2021/08/10 09:02:43;;;;;;;5.85;5.40;;;30.70;59.60;;;;;;5006936;28;20181;-75
2021/08/10 09:05:10;;;;;;;6.15;5.13;;;30.80;59.80;;;;;;5006930;28;20185;-75
2021/08/10 09:07:36;;;;;;;4.43;4.15;;;30.90;59.60;;;;;;5006841;28;20185;-75
2021/08/10 09:10:13;;;;;;;4.90;4.50;;;31.00;58.50;;;;;;4998754;28;20270;-75
2021/08/10 09:12:47;;;;;;;5.00;4.70;;;31.20;58.90;;;;;;5006968;28;20189;-75
2021/08/10 09:15:27;;;;;;;4.80;4.53;;;31.40;57.90;;;;;;5006711;28;20215;-75
2021/08/10 09:17:54;;;;;;;4.50;4.20;;;31.50;58.40;;;;;;5007818;28;20207;-75
2021/08/10 09:20:21;;;;;;;3.90;3.70;;;31.70;58.00;;;;;;5006957;28;20192;-75
2021/08/10 09:22:52;;;;;;;4.90;4.60;;;31.90;57.90;;;;;;5003213;28;20185;-75
2021/08/10 09:25:18;;;;;;;5.53;4.50;;;32.10;57.50;;;;;;5000366;28;20186;-75
2021/08/10 09:27:43;;;;;;;4.47;4.22;;;32.20;56.70;;;;;;4991679;28;20197;-75
2021/08/10 09:30:29;;;;;;;4.22;4.03;;;32.50;56.00;;;;;;5005055;28;20721;-75
2021/08/10 09:32:58;;;;;;;3.08;2.95;;;32.70;55.10;;;;;;5006540;28;20240;-75
2021/08/10 09:35:28;;;;;;;3.05;2.80;;;33.00;53.70;;;;;;4991910;28;20795;-75
2021/08/10 09:38:18;;;;;;;2.88;2.85;;;33.30;52.00;;;;;;4995190;28;20669;-75
2021/08/10 09:40:52;;;;;;;3.63;3.28;;;33.60;51.50;;;;;;5003686;28;20180;-75
2021/08/10 09:43:26;;;;;;;3.92;3.40;;;34.00;52.30;;;;;;5010108;28;20196;-75
2021/08/10 09:46:09;;;;;;;4.05;3.72;;;34.40;51.20;;;;;;5010083;28;20647;-75
2021/08/10 09:48:36;;;;;;;3.58;3.28;;;34.90;51.20;;;;;;5001845;28;20211;-75
2021/08/10 09:51:12;;;;;;;3.70;3.50;;;35.30;51.00;;;;;;5009947;28;20177;-75
2021/08/10 09:53:39;;;;;;;4.00;3.70;;;35.80;50.20;;;;;;5009662;28;20244;-75
2021/08/10 09:56:05;;;;;;;3.17;3.08;;;36.30;48.90;;;;;;5009637;28;20188;-75
2021/08/10 09:58:51;;;;;;;3.80;3.53;;;36.70;47.90;;;;;;5004762;28;20251;-75
2021/08/10 10:01:34;;;;;;;3.83;3.72;;;37.20;49.10;;;;;;5009317;28;20242;-75
2021/08/10 10:04:20;;;;;;;3.50;3.30;;;37.90;47.00;;;;;;5009771;28;20185;-75
2021/08/10 10:06:51;;;;;;;3.10;3.00;;;38.50;44.90;;;;;;5010144;28;20187;-75
2021/08/10 10:09:18;;;;;;;2.38;2.38;;;39.30;44.60;;;;;;5001263;28;20196;-75
2021/08/10 10:11:46;;;;;;;3.13;2.72;;;39.90;44.40;;;;;;5009262;28;20679;-75
2021/08/10 10:14:12;;;;;;;4.70;3.30;;;40.60;44.10;;;;;;5007624;28;20954;-75
2021/08/10 10:16:48;;;;;;;3.88;3.58;;;41.10;43.80;;;;;;5001353;28;20740;-75
2021/08/10 10:19:16;;;;;;;3.33;3.13;;;41.70;42.50;;;;;;5004253;28;20188;-75
2021/08/10 10:21:48;;;;;;;3.17;3.08;;;42.10;42.70;;;;;;5009940;28;21002;-75
2021/08/10 10:24:16;;;;;;;2.95;2.78;;;42.50;42.50;;;;;;5008007;28;20184;-75
2021/08/10 10:26:48;;;;;;;3.15;3.03;;;42.90;42.60;;;;;;5002115;28;20270;-75
2021/08/10 10:29:15;;;;;;;3.55;3.25;;;43.30;41.40;;;;;;5000604;28;20200;-72
2021/08/10 10:31:42;;;;;;;3.45;3.35;;;43.60;43.40;;;;;;5000250;28;20199;-75
2021/08/10 10:34:12;;;;;;;3.50;3.20;;;43.70;41.00;;;;;;4995294;28;20690;-75
2021/08/10 10:36:43;;;;;;;3.78;3.58;;;44.00;41.80;;;;;;4998821;28;20782;-75
2021/08/10 10:39:11;;;;;;;3.53;3.35;;;44.40;42.20;;;;;;4996914;28;20192;-75
2021/08/10 10:41:38;;;;;;;4.05;3.90;;;44.80;41.50;;;;;;5003548;28;20183;-73
2021/08/10 10:44:06;;;;;;;3.67;3.53;;;45.10;41.10;;;;;;4999133;28;20197;-73
2021/08/10 10:46:38;;;;;;;3.63;3.53;;;45.40;40.10;;;;;;5000903;28;20185;-74
2021/08/10 10:49:05;;;;;;;4.72;4.25;;;45.90;40.40;;;;;;4997864;28;20339;-73
2021/08/10 10:51:32;;;;;;;3.88;3.70;;;46.20;39.80;;;;;;5002604;28;20544;-74
2021/08/10 10:54:23;;;;;;;4.60;3.67;;;46.40;40.20;;;;;;5001090;28;20307;-73
2021/08/10 10:56:51;;;;;;;3.97;3.63;;;46.70;38.90;;;;;;5001539;28;20220;-73
2021/08/10 10:59:23;;;;;;;3.38;3.28;;;46.90;38.50;;;;;;5003428;28;20202;-71
2021/08/10 11:02:09;;;;;;;3.28;3.28;;;46.90;40.10;;;;;;5006506;28;20192;-74
2021/08/10 11:04:35;;;;;;;2.97;2.88;;;47.00;39.50;;;;;;5003343;28;20231;-75
2021/08/10 11:07:36;;;;;;;3.58;3.38;;;47.10;38.80;;;;;;5005221;28;20583;-75
2021/08/10 11:10:07;;;;;;;3.50;2.88;;;47.40;37.70;;;;;;5003844;28;20188;-74
2021/08/10 11:12:42;;;;;;;2.60;2.50;;;47.60;38.70;;;;;;5003737;28;20272;-74
2021/08/10 11:15:16;;;;;;;4.63;4.05;;;47.80;37.50;;;;;;5001929;28;20219;-74
2021/08/10 11:18:07;;;;;;;3.38;3.17;;;47.90;38.50;;;;;;5000359;28;20207;-75
2021/08/10 11:20:37;;;;;;;3.42;3.15;;;48.10;37.50;;;;;;5002130;28;20248;-74
2021/08/10 11:23:24;;;;;;;2.92;2.92;;;48.40;38.50;;;;;;4995029;28;20585;-75
2021/08/10 11:26:14;;;;;;;3.30;2.95;;;48.30;37.20;;;;;;4991713;28;20184;-75
2021/08/10 11:28:49;;;;;;;3.05;2.95;;;48.10;37.50;;;;;;4942083;29;20198;-75
2021/08/10 11:31:51;;;;;;;3.60;2.88;;;48.20;38.20;;;;;;4938097;29;20194;-76
2021/08/10 11:34:32;;;;;;;3.17;3.00;;;48.50;36.90;;;;;;4854677;29;20239;-76
2021/08/10 11:37:18;;;;;;;3.17;3.10;;;48.60;37.30;;;;;;4863271;29;20422;-73
2021/08/10 11:40:04;;;;;;;2.97;2.70;;;48.60;37.30;;;;;;4845009;29;20245;-73
2021/08/10 11:42:30;;;;;;;2.83;2.72;;;48.50;37.30;;;;;;4852650;29;20300;-73
2021/08/10 11:44:57;;;;;;;3.10;3.00;;;48.50;38.80;;;;;;4865214;29;20932;-73
2021/08/10 11:47:23;;;;;;;2.95;2.85;;;48.70;39.00;;;;;;4848040;29;20382;-72
2021/08/10 11:49:54;;;;;;;3.08;2.92;;;48.90;38.30;;;;;;4862160;29;20742;-73
2021/08/10 11:52:21;;;;;;;3.03;2.92;;;49.10;37.60;;;;;;4857428;29;20701;-73
2021/08/10 11:54:59;;;;;;;3.05;2.85;;;49.40;38.50;;;;;;4865194;29;20245;-72
2021/08/10 11:57:25;;;;;;;3.20;3.10;;;49.50;36.40;;;;;;4846394;29;20293;-73
2021/08/10 12:00:11;;;;;;;2.78;2.78;;;49.30;37.20;;;;;;4851763;29;20303;-73
2021/08/10 12:02:44;;;;;;;5.35;2.78;;;49.20;36.50;;;;;;4855330;29;20752;-73
2021/08/10 12:05:11;;;;;;;2.92;2.92;;;49.10;38.30;;;;;;4859777;29;20191;-73
2021/08/10 12:07:50;;;;;;;3.55;3.38;;;49.10;37.90;;;;;;4924792;28;20783;-73
2021/08/10 12:10:22;;;;;;;4.40;3.25;;;49.30;37.10;;;;;;5005773;28;20208;-73
2021/08/10 12:12:48;;;;;;;5.18;3.40;;;49.50;36.70;;;;;;4996411;28;20204;-73
2021/08/10 12:15:54;;;;;;;3.30;3.10;;;49.60;36.90;;;;;;4999675;28;20242;-73
2021/08/10 12:18:22;;;;;;;3.25;3.15;;;49.50;36.20;;;;;;4971287;28;20288;-72
2021/08/10 12:20:59;;;;;;;2.97;2.88;;;49.60;36.50;;;;;;4976133;28;20244;-73
2021/08/10 12:23:28;;;;;;;3.53;3.20;;;49.10;35.80;;;;;;4983810;28;20198;-72
2021/08/10 12:25:54;;;;;;;2.83;2.75;;;48.60;37.90;;;;;;4969805;28;20280;-73
2021/08/10 12:28:19;;;;;;;3.08;2.95;;;48.40;37.40;;;;;;4984261;28;20316;-71
2021/08/10 12:30:45;;;;;;;3.10;2.90;;;48.30;37.90;;;;;;4967915;28;20213;-73
2021/08/10 12:33:16;;;;;;;2.80;2.70;;;48.40;37.60;;;;;;4980824;28;20610;-73
2021/08/10 12:35:59;;;;;;;4.00;2.80;;;48.50;36.90;;;;;;4983975;28;20210;-71
2021/08/10 12:38:26;;;;;;;2.88;2.78;;;48.50;36.60;;;;;;4969549;28;20209;-71
2021/08/10 12:40:52;;;;;;;3.20;3.03;;;48.40;37.20;;;;;;4968206;28;20182;-72
2021/08/10 12:43:22;;;;;;;4.40;3.00;;;48.40;38.00;;;;;;4970327;28;20194;-72
2021/08/10 12:45:51;;;;;;;3.22;3.03;;;48.40;37.10;;;;;;4968488;28;20604;-72
2021/08/10 12:48:26;;;;;;;4.22;3.85;;;48.10;37.10;;;;;;4967956;28;20259;-74
2021/08/10 12:50:56;;;;;;;3.05;2.90;;;47.50;36.70;;;;;;4998267;28;20366;-73
2021/08/10 12:53:34;;;;;;;3.03;2.83;;;47.10;37.50;;;;;;5006942;28;20176;-71
2021/08/10 12:56:01;;;;;;;3.00;2.85;;;47.00;37.10;;;;;;5002100;28;20576;-70
2021/08/10 12:58:28;;;;;;;2.97;2.88;;;47.20;37.90;;;;;;5004052;28;20246;-71